sensor_id;sensor_type;location;lat;lon;timestamp;pressure;altitude;pressure_sealevel;temperature;humidity
9189;BME280;34313;50.780;6.084;2022-12-18T00:00:57;100634.31;;;-6.21;97.55
9189;BME280;34313;50.780;6.084;2022-12-18T00:03:22;100632.31;;;-6.31;97.80
9189;BME280;34313;50.780;6.084;2022-12-18T00:05:49;100635.16;;;-6.22;97.68
9189;BME280;34313;50.780;6.084;2022-12-18T00:08:15;100634.16;;;-6.27;97.74
9189;BME280;34313;50.780;6.084;2022-12-18T00:10:41;100641.72;;;-6.32;98.48
9189;BME280;34313;50.780;6.084;2022-12-18T00:13:06;100636.72;;;-6.27;98.86
9189;BME280;34313;50.780;6.084;2022-12-18T00:15:36;100633.25;;;-6.28;98.51
9189;BME280;34313;50.780;6.084;2022-12-18T00:18:02;100640.41;;;-6.17;98.00
9189;BME280;34313;50.780;6.084;2022-12-18T00:20:27;100643.63;;;-6.24;97.83
9189;BME280;34313;50.780;6.084;2022-12-18T00:22:53;100641.00;;;-6.26;97.91
9189;BME280;34313;50.780;6.084;2022-12-18T00:25:19;100646.09;;;-6.28;98.49
9189;BME280;34313;50.780;6.084;2022-12-18T00:27:45;100652.84;;;-6.31;98.16
9189;BME280;34313;50.780;6.084;2022-12-18T00:30:10;100658.81;;;-6.32;98.18
9189;BME280;34313;50.780;6.084;2022-12-18T00:32:36;100646.63;;;-6.39;98.27
9189;BME280;34313;50.780;6.084;2022-12-18T00:35:02;100650.13;;;-6.37;97.76
9189;BME280;34313;50.780;6.084;2022-12-18T00:37:28;100649.16;;;-6.41;97.98
9189;BME280;34313;50.780;6.084;2022-12-18T00:39:53;100642.22;;;-6.45;97.62
9189;BME280;34313;50.780;6.084;2022-12-18T00:42:18;100636.09;;;-6.49;97.76
9189;BME280;34313;50.780;6.084;2022-12-18T00:45:03;100638.66;;;-6.49;97.59
9189;BME280;34313;50.780;6.084;2022-12-18T00:47:28;100639.34;;;-6.54;98.04
9189;BME280;34313;50.780;6.084;2022-12-18T00:49:53;100644.44;;;-6.56;97.89
9189;BME280;34313;50.780;6.084;2022-12-18T00:52:19;100639.94;;;-6.63;98.16
9189;BME280;34313;50.780;6.084;2022-12-18T00:54:44;100630.59;;;-6.62;98.71
9189;BME280;34313;50.780;6.084;2022-12-18T00:57:10;100625.31;;;-6.67;98.46
9189;BME280;34313;50.780;6.084;2022-12-18T00:59:35;100626.31;;;-6.62;98.44
9189;BME280;34313;50.780;6.084;2022-12-18T01:02:00;100627.53;;;-6.49;98.17
9189;BME280;34313;50.780;6.084;2022-12-18T01:04:26;100635.13;;;-6.52;98.85
9189;BME280;34313;50.780;6.084;2022-12-18T01:06:51;100623.81;;;-6.60;98.93
9189;BME280;34313;50.780;6.084;2022-12-18T01:09:16;100624.75;;;-6.57;98.58
9189;BME280;34313;50.780;6.084;2022-12-18T01:11:41;100626.47;;;-6.56;98.16
9189;BME280;34313;50.780;6.084;2022-12-18T01:14:07;100628.09;;;-6.59;98.28
9189;BME280;34313;50.780;6.084;2022-12-18T01:16:32;100625.47;;;-6.61;98.29
9189;BME280;34313;50.780;6.084;2022-12-18T01:18:58;100620.22;;;-6.66;98.47
9189;BME280;34313;50.780;6.084;2022-12-18T01:21:23;100600.31;;;-6.74;99.30
9189;BME280;34313;50.780;6.084;2022-12-18T01:23:54;100604.09;;;-6.61;98.93
9189;BME280;34313;50.780;6.084;2022-12-18T01:26:20;100600.59;;;-6.65;98.62
9189;BME280;34313;50.780;6.084;2022-12-18T01:28:46;100598.63;;;-6.74;98.57
9189;BME280;34313;50.780;6.084;2022-12-18T01:33:39;100599.41;;;-6.76;98.74
9189;BME280;34313;50.780;6.084;2022-12-18T01:36:05;100603.78;;;-6.72;97.99
9189;BME280;34313;50.780;6.084;2022-12-18T01:38:31;100602.03;;;-6.75;98.13
9189;BME280;34313;50.780;6.084;2022-12-18T01:41:00;100611.38;;;-6.75;97.79
9189;BME280;34313;50.780;6.084;2022-12-18T01:43:45;100615.44;;;-6.83;98.07
9189;BME280;34313;50.780;6.084;2022-12-18T01:46:11;100620.78;;;-6.76;97.13
9189;BME280;34313;50.780;6.084;2022-12-18T01:48:37;100614.22;;;-6.95;97.01
9189;BME280;34313;50.780;6.084;2022-12-18T01:51:04;100611.44;;;-7.03;97.39
9189;BME280;34313;50.780;6.084;2022-12-18T01:53:31;100620.81;;;-7.03;97.40
9189;BME280;34313;50.780;6.084;2022-12-18T01:55:57;100614.66;;;-7.08;97.44
9189;BME280;34313;50.780;6.084;2022-12-18T02:01:14;100605.25;;;-7.09;97.70
9189;BME280;34313;50.780;6.084;2022-12-18T02:03:44;100604.25;;;-7.14;97.45
9189;BME280;34313;50.780;6.084;2022-12-18T02:06:15;100605.09;;;-7.14;97.77
9189;BME280;34313;50.780;6.084;2022-12-18T02:09:02;100610.22;;;-7.14;96.94
9189;BME280;34313;50.780;6.084;2022-12-18T02:14:38;100595.88;;;-7.09;96.40
9189;BME280;34313;50.780;6.084;2022-12-18T02:17:25;100592.28;;;-7.14;96.17
9189;BME280;34313;50.780;6.084;2022-12-18T02:27:52;100580.28;;;-7.16;95.06
9189;BME280;34313;50.780;6.084;2022-12-18T02:30:19;100581.28;;;-7.11;94.47
9189;BME280;34313;50.780;6.084;2022-12-18T02:32:51;100576.88;;;-7.15;94.21
9189;BME280;34313;50.780;6.084;2022-12-18T02:35:23;100584.72;;;-7.11;94.11
9189;BME280;34313;50.780;6.084;2022-12-18T02:37:51;100586.63;;;-7.04;92.59
9189;BME280;34313;50.780;6.084;2022-12-18T02:40:19;100594.16;;;-7.08;92.70
9189;BME280;34313;50.780;6.084;2022-12-18T02:42:46;100595.91;;;-7.07;91.71
9189;BME280;34313;50.780;6.084;2022-12-18T02:45:11;100593.31;;;-7.09;91.85
9189;BME280;34313;50.780;6.084;2022-12-18T02:47:39;100586.41;;;-7.11;91.07
9189;BME280;34313;50.780;6.084;2022-12-18T02:53:03;100575.25;;;-7.13;90.66
9189;BME280;34313;50.780;6.084;2022-12-18T02:58:16;100582.09;;;-7.12;89.60
9189;BME280;34313;50.780;6.084;2022-12-18T03:00:50;100568.28;;;-7.17;89.30
9189;BME280;34313;50.780;6.084;2022-12-18T03:03:28;100578.63;;;-7.14;89.37
9189;BME280;34313;50.780;6.084;2022-12-18T03:06:18;100571.78;;;-7.14;88.84
9189;BME280;34313;50.780;6.084;2022-12-18T03:08:48;100569.22;;;-7.14;88.62
9189;BME280;34313;50.780;6.084;2022-12-18T03:11:16;100567.72;;;-7.07;87.81
9189;BME280;34313;50.780;6.084;2022-12-18T03:14:02;100565.53;;;-6.95;87.78
9189;BME280;34313;50.780;6.084;2022-12-18T03:16:29;100556.03;;;-6.99;87.46
9189;BME280;34313;50.780;6.084;2022-12-18T03:19:01;100557.59;;;-7.04;87.33
9189;BME280;34313;50.780;6.084;2022-12-18T03:21:33;100560.84;;;-7.08;87.80
9189;BME280;34313;50.780;6.084;2022-12-18T03:24:03;100551.34;;;-7.12;87.48
9189;BME280;34313;50.780;6.084;2022-12-18T03:26:31;100542.59;;;-7.19;88.12
9189;BME280;34313;50.780;6.084;2022-12-18T03:29:01;100546.47;;;-7.05;87.64
9189;BME280;34313;50.780;6.084;2022-12-18T03:31:29;100540.34;;;-7.08;87.72
9189;BME280;34313;50.780;6.084;2022-12-18T03:33:58;100541.16;;;-7.11;87.74
9189;BME280;34313;50.780;6.084;2022-12-18T03:36:26;100541.69;;;-7.21;87.72
9189;BME280;34313;50.780;6.084;2022-12-18T03:38:52;100538.31;;;-7.20;87.40
9189;BME280;34313;50.780;6.084;2022-12-18T03:41:31;100526.28;;;-7.23;87.37
9189;BME280;34313;50.780;6.084;2022-12-18T03:49:11;100536.63;;;-7.19;86.99
9189;BME280;34313;50.780;6.084;2022-12-18T03:54:04;100531.13;;;-7.32;86.67
9189;BME280;34313;50.780;6.084;2022-12-18T03:56:45;100526.91;;;-7.30;86.87
9189;BME280;34313;50.780;6.084;2022-12-18T03:59:12;100526.78;;;-7.34;87.16
9189;BME280;34313;50.780;6.084;2022-12-18T04:01:42;100531.22;;;-7.29;87.01
9189;BME280;34313;50.780;6.084;2022-12-18T04:04:10;100518.22;;;-7.35;87.19
9189;BME280;34313;50.780;6.084;2022-12-18T04:06:38;100521.75;;;-7.31;87.16
9189;BME280;34313;50.780;6.084;2022-12-18T04:09:05;100521.09;;;-7.26;86.76
9189;BME280;34313;50.780;6.084;2022-12-18T04:11:31;100520.13;;;-7.28;86.85
9189;BME280;34313;50.780;6.084;2022-12-18T04:13:57;100525.94;;;-7.33;87.15
9189;BME280;34313;50.780;6.084;2022-12-18T04:16:24;100521.53;;;-7.39;87.15
9189;BME280;34313;50.780;6.084;2022-12-18T04:18:49;100523.97;;;-7.42;87.48
9189;BME280;34313;50.780;6.084;2022-12-18T04:21:15;100517.09;;;-7.45;87.57
9189;BME280;34313;50.780;6.084;2022-12-18T04:23:43;100517.34;;;-7.35;87.49
9189;BME280;34313;50.780;6.084;2022-12-18T04:26:09;100511.97;;;-7.45;87.16
9189;BME280;34313;50.780;6.084;2022-12-18T04:28:34;100504.19;;;-7.48;87.50
9189;BME280;34313;50.780;6.084;2022-12-18T04:30:59;100505.09;;;-7.46;87.77
9189;BME280;34313;50.780;6.084;2022-12-18T04:33:25;100515.44;;;-7.43;87.85
9189;BME280;34313;50.780;6.084;2022-12-18T04:35:50;100500.94;;;-7.42;87.93
9189;BME280;34313;50.780;6.084;2022-12-18T04:38:15;100500.22;;;-7.38;87.68
9189;BME280;34313;50.780;6.084;2022-12-18T04:40:41;100495.09;;;-7.38;87.56
9189;BME280;34313;50.780;6.084;2022-12-18T04:43:06;100489.97;;;-7.38;87.93
9189;BME280;34313;50.780;6.084;2022-12-18T04:45:32;100484.59;;;-7.46;88.24
9189;BME280;34313;50.780;6.084;2022-12-18T04:47:59;100493.16;;;-7.45;88.40
9189;BME280;34313;50.780;6.084;2022-12-18T04:50:24;100501.84;;;-7.40;88.49
9189;BME280;34313;50.780;6.084;2022-12-18T04:52:50;100499.81;;;-7.50;88.20
9189;BME280;34313;50.780;6.084;2022-12-18T04:55:15;100513.03;;;-7.38;87.69
9189;BME280;34313;50.780;6.084;2022-12-18T04:57:41;100516.19;;;-7.47;88.15
9189;BME280;34313;50.780;6.084;2022-12-18T05:00:06;100517.66;;;-7.53;88.37
9189;BME280;34313;50.780;6.084;2022-12-18T05:02:32;100522.00;;;-7.51;88.44
9189;BME280;34313;50.780;6.084;2022-12-18T05:04:57;100530.38;;;-7.56;88.96
9189;BME280;34313;50.780;6.084;2022-12-18T05:07:23;100529.44;;;-7.58;88.93
9189;BME280;34313;50.780;6.084;2022-12-18T05:09:48;100532.88;;;-7.58;89.06
9189;BME280;34313;50.780;6.084;2022-12-18T05:12:13;100532.72;;;-7.63;89.03
9189;BME280;34313;50.780;6.084;2022-12-18T05:14:39;100535.53;;;-7.55;89.27
9189;BME280;34313;50.780;6.084;2022-12-18T05:17:04;100542.38;;;-7.54;89.16
9189;BME280;34313;50.780;6.084;2022-12-18T05:19:29;100536.25;;;-7.59;88.99
9189;BME280;34313;50.780;6.084;2022-12-18T05:21:55;100537.25;;;-7.54;89.45
9189;BME280;34313;50.780;6.084;2022-12-18T05:24:20;100538.59;;;-7.39;89.27
9189;BME280;34313;50.780;6.084;2022-12-18T05:26:45;100535.88;;;-7.44;89.35
9189;BME280;34313;50.780;6.084;2022-12-18T05:29:11;100551.38;;;-7.39;89.36
9189;BME280;34313;50.780;6.084;2022-12-18T05:31:38;100541.25;;;-7.35;89.03
9189;BME280;34313;50.780;6.084;2022-12-18T05:34:04;100547.19;;;-7.37;88.88
9189;BME280;34313;50.780;6.084;2022-12-18T05:36:29;100545.47;;;-7.37;89.25
9189;BME280;34313;50.780;6.084;2022-12-18T05:38:55;100544.47;;;-7.42;89.44
9189;BME280;34313;50.780;6.084;2022-12-18T05:41:20;100547.13;;;-7.39;89.70
9189;BME280;34313;50.780;6.084;2022-12-18T05:43:46;100543.50;;;-7.46;89.93
9189;BME280;34313;50.780;6.084;2022-12-18T05:46:14;100546.97;;;-7.44;89.52
9189;BME280;34313;50.780;6.084;2022-12-18T05:48:41;100539.25;;;-7.45;89.31
9189;BME280;34313;50.780;6.084;2022-12-18T05:51:09;100541.16;;;-7.39;89.08
9189;BME280;34313;50.780;6.084;2022-12-18T05:53:36;100533.03;;;-7.53;88.94
9189;BME280;34313;50.780;6.084;2022-12-18T05:56:04;100535.97;;;-7.41;88.71
9189;BME280;34313;50.780;6.084;2022-12-18T05:58:30;100533.09;;;-7.52;89.38
9189;BME280;34313;50.780;6.084;2022-12-18T06:00:56;100538.22;;;-7.52;89.00
9189;BME280;34313;50.780;6.084;2022-12-18T06:03:22;100536.22;;;-7.61;89.05
9189;BME280;34313;50.780;6.084;2022-12-18T06:05:47;100549.53;;;-7.71;89.42
9189;BME280;34313;50.780;6.084;2022-12-18T06:08:13;100551.69;;;-7.83;89.86
9189;BME280;34313;50.780;6.084;2022-12-18T06:10:39;100548.13;;;-7.88;90.63
9189;BME280;34313;50.780;6.084;2022-12-18T06:13:05;100536.91;;;-7.92;90.87
9189;BME280;34313;50.780;6.084;2022-12-18T06:15:31;100527.59;;;-7.90;91.15
9189;BME280;34313;50.780;6.084;2022-12-18T06:17:57;100523.03;;;-7.99;91.34
9189;BME280;34313;50.780;6.084;2022-12-18T06:20:23;100520.59;;;-7.95;91.24
9189;BME280;34313;50.780;6.084;2022-12-18T06:22:48;100525.59;;;-7.99;91.53
9189;BME280;34313;50.780;6.084;2022-12-18T06:25:13;100522.31;;;-7.94;91.41
9189;BME280;34313;50.780;6.084;2022-12-18T06:27:39;100521.34;;;-7.98;91.70
9189;BME280;34313;50.780;6.084;2022-12-18T06:30:05;100525.44;;;-8.03;91.99
9189;BME280;34313;50.780;6.084;2022-12-18T06:32:31;100523.66;;;-8.06;92.23
9189;BME280;34313;50.780;6.084;2022-12-18T06:34:57;100515.25;;;-8.02;92.49
9189;BME280;34313;50.780;6.084;2022-12-18T06:37:22;100507.94;;;-7.91;92.63
9189;BME280;34313;50.780;6.084;2022-12-18T06:39:54;100515.03;;;-7.82;91.95
9189;BME280;34313;50.780;6.084;2022-12-18T06:42:21;100522.63;;;-7.85;92.22
9189;BME280;34313;50.780;6.084;2022-12-18T06:44:46;100525.09;;;-7.88;92.02
9189;BME280;34313;50.780;6.084;2022-12-18T06:47:12;100532.78;;;-7.88;91.54
9189;BME280;34313;50.780;6.084;2022-12-18T06:49:37;100542.16;;;-7.89;92.22
9189;BME280;34313;50.780;6.084;2022-12-18T06:52:03;100548.97;;;-7.88;92.07
9189;BME280;34313;50.780;6.084;2022-12-18T06:54:28;100543.91;;;-7.86;92.26
9189;BME280;34313;50.780;6.084;2022-12-18T06:56:53;100538.50;;;-7.95;92.07
9189;BME280;34313;50.780;6.084;2022-12-18T06:59:19;100541.41;;;-7.85;91.87
9189;BME280;34313;50.780;6.084;2022-12-18T07:01:44;100536.41;;;-7.82;92.14
9189;BME280;34313;50.780;6.084;2022-12-18T07:04:09;100532.88;;;-7.85;92.13
9189;BME280;34313;50.780;6.084;2022-12-18T07:06:35;100526.81;;;-7.87;93.04
9189;BME280;34313;50.780;6.084;2022-12-18T07:09:00;100534.50;;;-7.87;92.54
9189;BME280;34313;50.780;6.084;2022-12-18T07:11:25;100531.34;;;-7.79;92.37
9189;BME280;34313;50.780;6.084;2022-12-18T07:13:52;100526.28;;;-7.77;92.40
9189;BME280;34313;50.780;6.084;2022-12-18T07:16:18;100529.00;;;-7.72;92.22
9189;BME280;34313;50.780;6.084;2022-12-18T07:18:45;100513.88;;;-7.65;92.39
9189;BME280;34313;50.780;6.084;2022-12-18T07:21:13;100522.47;;;-7.63;91.94
9189;BME280;34313;50.780;6.084;2022-12-18T07:23:39;100526.38;;;-7.48;91.79
9189;BME280;34313;50.780;6.084;2022-12-18T07:26:06;100524.81;;;-7.43;91.08
9189;BME280;34313;50.780;6.084;2022-12-18T07:28:32;100522.16;;;-7.46;91.17
9189;BME280;34313;50.780;6.084;2022-12-18T07:31:05;100509.13;;;-7.25;90.03
9189;BME280;34313;50.780;6.084;2022-12-18T07:33:31;100509.09;;;-7.27;90.12
9189;BME280;34313;50.780;6.084;2022-12-18T07:35:58;100494.88;;;-7.17;89.38
9189;BME280;34313;50.780;6.084;2022-12-18T07:38:24;100488.03;;;-7.16;88.75
9189;BME280;34313;50.780;6.084;2022-12-18T07:40:49;100481.97;;;-7.20;89.21
9189;BME280;34313;50.780;6.084;2022-12-18T07:43:14;100474.38;;;-7.17;88.99
9189;BME280;34313;50.780;6.084;2022-12-18T07:45:40;100473.63;;;-7.13;88.71
9189;BME280;34313;50.780;6.084;2022-12-18T07:48:05;100463.47;;;-7.10;88.55
9189;BME280;34313;50.780;6.084;2022-12-18T07:50:30;100463.94;;;-6.93;87.56
9189;BME280;34313;50.780;6.084;2022-12-18T07:52:56;100466.81;;;-6.80;86.88
9189;BME280;34313;50.780;6.084;2022-12-18T07:55:21;100450.16;;;-6.66;86.90
9189;BME280;34313;50.780;6.084;2022-12-18T07:57:46;100441.16;;;-6.50;86.21
9189;BME280;34313;50.780;6.084;2022-12-18T08:00:12;100451.97;;;-6.29;85.77
9189;BME280;34313;50.780;6.084;2022-12-18T08:02:38;100447.50;;;-6.01;84.17
9189;BME280;34313;50.780;6.084;2022-12-18T08:05:03;100439.44;;;-5.78;84.26
9189;BME280;34313;50.780;6.084;2022-12-18T08:07:29;100433.19;;;-5.52;82.67
9189;BME280;34313;50.780;6.084;2022-12-18T08:09:54;100430.16;;;-5.32;81.76
9189;BME280;34313;50.780;6.084;2022-12-18T08:12:22;100431.28;;;-5.19;80.64
9189;BME280;34313;50.780;6.084;2022-12-18T08:14:47;100421.06;;;-5.16;79.52
9189;BME280;34313;50.780;6.084;2022-12-18T08:17:12;100426.22;;;-5.16;78.43
9189;BME280;34313;50.780;6.084;2022-12-18T08:19:38;100423.53;;;-5.22;79.35
9189;BME280;34313;50.780;6.084;2022-12-18T08:22:03;100419.19;;;-5.25;79.00
9189;BME280;34313;50.780;6.084;2022-12-18T08:24:28;100425.78;;;-5.38;77.88
9189;BME280;34313;50.780;6.084;2022-12-18T08:26:53;100417.84;;;-5.47;78.70
9189;BME280;34313;50.780;6.084;2022-12-18T08:29:20;100419.56;;;-5.47;78.19
9189;BME280;34313;50.780;6.084;2022-12-18T08:31:46;100422.44;;;-5.34;78.17
9189;BME280;34313;50.780;6.084;2022-12-18T08:34:11;100407.97;;;-5.28;77.95
9189;BME280;34313;50.780;6.084;2022-12-18T08:36:36;100414.16;;;-5.20;77.37
9189;BME280;34313;50.780;6.084;2022-12-18T08:39:02;100411.88;;;-5.05;77.78
9189;BME280;34313;50.780;6.084;2022-12-18T08:41:27;100411.50;;;-4.79;76.03
9189;BME280;34313;50.780;6.084;2022-12-18T08:43:53;100419.59;;;-4.58;76.15
9189;BME280;34313;50.780;6.084;2022-12-18T08:46:39;100418.41;;;-4.28;75.54
9189;BME280;34313;50.780;6.084;2022-12-18T08:49:06;100415.47;;;-3.97;74.62
9189;BME280;34313;50.780;6.084;2022-12-18T08:51:32;100421.91;;;-3.69;73.54
9189;BME280;34313;50.780;6.084;2022-12-18T08:53:57;100422.13;;;-3.51;72.77
9189;BME280;34313;50.780;6.084;2022-12-18T08:56:23;100429.28;;;-3.30;71.94
9189;BME280;34313;50.780;6.084;2022-12-18T08:58:51;100421.72;;;-3.19;71.20
9189;BME280;34313;50.780;6.084;2022-12-18T09:01:17;100420.34;;;-2.86;70.54
9189;BME280;34313;50.780;6.084;2022-12-18T09:03:42;100406.97;;;-2.50;69.88
9189;BME280;34313;50.780;6.084;2022-12-18T09:06:08;100409.94;;;-2.03;68.83
9189;BME280;34313;50.780;6.084;2022-12-18T09:08:33;100395.50;;;-1.72;68.26
9189;BME280;34313;50.780;6.084;2022-12-18T09:10:58;100400.03;;;-1.36;65.59
9189;BME280;34313;50.780;6.084;2022-12-18T09:13:24;100391.41;;;-1.30;63.82
9189;BME280;34313;50.780;6.084;2022-12-18T09:15:51;100377.69;;;-1.09;62.68
9189;BME280;34313;50.780;6.084;2022-12-18T09:18:19;100377.59;;;-1.35;62.23
9189;BME280;34313;50.780;6.084;2022-12-18T09:20:45;100377.63;;;-1.32;61.41
9189;BME280;34313;50.780;6.084;2022-12-18T09:23:11;100378.44;;;-1.47;61.98
9189;BME280;34313;50.780;6.084;2022-12-18T09:25:37;100372.41;;;-1.44;62.17
9189;BME280;34313;50.780;6.084;2022-12-18T09:28:12;100379.28;;;-1.46;61.60
9189;BME280;34313;50.780;6.084;2022-12-18T09:30:41;100381.91;;;-1.43;61.70
9189;BME280;34313;50.780;6.084;2022-12-18T09:33:07;100379.38;;;-1.31;62.53
9189;BME280;34313;50.780;6.084;2022-12-18T09:35:38;100375.97;;;-1.16;61.93
9189;BME280;34313;50.780;6.084;2022-12-18T09:38:05;100369.09;;;-1.02;62.01
9189;BME280;34313;50.780;6.084;2022-12-18T09:40:35;100379.47;;;-0.97;61.64
9189;BME280;34313;50.780;6.084;2022-12-18T09:43:04;100375.19;;;-0.80;62.03
9189;BME280;34313;50.780;6.084;2022-12-18T09:45:44;100375.22;;;-0.67;61.67
9189;BME280;34313;50.780;6.084;2022-12-18T09:48:41;100370.94;;;-0.41;61.29
9189;BME280;34313;50.780;6.084;2022-12-18T09:51:20;100369.22;;;-0.32;60.89
9189;BME280;34313;50.780;6.084;2022-12-18T09:53:53;100361.47;;;-0.39;61.63
9189;BME280;34313;50.780;6.084;2022-12-18T09:56:22;100353.66;;;-0.25;61.75
9189;BME280;34313;50.780;6.084;2022-12-18T09:58:56;100370.06;;;-0.15;61.12
9189;BME280;34313;50.780;6.084;2022-12-18T10:01:25;100361.41;;;0.02;60.55
9189;BME280;34313;50.780;6.084;2022-12-18T10:03:52;100364.00;;;0.08;59.80
9189;BME280;34313;50.780;6.084;2022-12-18T10:06:35;100361.41;;;0.03;60.24
9189;BME280;34313;50.780;6.084;2022-12-18T10:09:32;100362.25;;;0.21;59.17
9189;BME280;34313;50.780;6.084;2022-12-18T10:12:18;100361.38;;;0.14;59.55
9189;BME280;34313;50.780;6.084;2022-12-18T10:15:01;100352.78;;;-0.04;59.36
9189;BME280;34313;50.780;6.084;2022-12-18T10:17:51;100349.34;;;-0.03;59.68
9189;BME280;34313;50.780;6.084;2022-12-18T10:20:33;100354.50;;;0.05;60.08
9189;BME280;34313;50.780;6.084;2022-12-18T10:25:49;100333.78;;;-0.07;60.87
9189;BME280;34313;50.780;6.084;2022-12-18T10:28:18;100338.94;;;0.11;61.02
9189;BME280;34313;50.780;6.084;2022-12-18T10:30:44;100323.34;;;0.25;60.85
9189;BME280;34313;50.780;6.084;2022-12-18T10:33:18;100340.56;;;0.45;60.40
9189;BME280;34313;50.780;6.084;2022-12-18T10:35:45;100344.88;;;0.47;60.32
9189;BME280;34313;50.780;6.084;2022-12-18T10:40:57;100340.56;;;0.51;60.24
9189;BME280;34313;50.780;6.084;2022-12-18T10:46:04;100337.88;;;0.71;59.49
9189;BME280;34313;50.780;6.084;2022-12-18T10:48:31;100331.78;;;0.80;58.90
9189;BME280;34313;50.780;6.084;2022-12-18T10:50:58;100335.28;;;0.75;59.16
9189;BME280;34313;50.780;6.084;2022-12-18T10:53:29;100333.47;;;0.88;59.52
9189;BME280;34313;50.780;6.084;2022-12-18T10:55:58;100324.84;;;0.79;59.02
9189;BME280;34313;50.780;6.084;2022-12-18T10:58:32;100332.53;;;1.02;59.39
9189;BME280;34313;50.780;6.084;2022-12-18T11:01:07;100326.38;;;1.13;59.15
9189;BME280;34313;50.780;6.084;2022-12-18T11:03:34;100323.78;;;1.18;58.97
9189;BME280;34313;50.780;6.084;2022-12-18T11:08:28;100303.19;;;0.87;60.10
9189;BME280;34313;50.780;6.084;2022-12-18T11:10:54;100291.25;;;0.59;60.61
9189;BME280;34313;50.780;6.084;2022-12-18T11:13:24;100298.97;;;0.69;60.97
9189;BME280;34313;50.780;6.084;2022-12-18T11:15:50;100285.94;;;0.79;60.56
9189;BME280;34313;50.780;6.084;2022-12-18T11:20:53;100287.50;;;1.04;60.99
9189;BME280;34313;50.780;6.084;2022-12-18T11:23:20;100281.41;;;1.11;60.95
9189;BME280;34313;50.780;6.084;2022-12-18T11:26:02;100280.47;;;1.22;61.31
9189;BME280;34313;50.780;6.084;2022-12-18T11:28:40;100277.97;;;1.06;61.51
9189;BME280;34313;50.780;6.084;2022-12-18T11:31:19;100268.56;;;0.91;62.01
9189;BME280;34313;50.780;6.084;2022-12-18T11:33:54;100276.22;;;1.07;62.41
9189;BME280;34313;50.780;6.084;2022-12-18T11:36:22;100286.59;;;1.10;61.95
9189;BME280;34313;50.780;6.084;2022-12-18T11:38:49;100271.94;;;1.03;62.36
9189;BME280;34313;50.780;6.084;2022-12-18T11:41:41;100269.97;;;1.34;62.24
9189;BME280;34313;50.780;6.084;2022-12-18T11:44:41;100261.16;;;1.52;61.82
9189;BME280;34313;50.780;6.084;2022-12-18T11:47:19;100254.19;;;1.59;61.53
9189;BME280;34313;50.780;6.084;2022-12-18T11:49:49;100250.63;;;1.67;61.17
9189;BME280;34313;50.780;6.084;2022-12-18T11:52:25;100251.41;;;1.77;60.70
9189;BME280;34313;50.780;6.084;2022-12-18T11:54:58;100248.69;;;1.88;60.76
9189;BME280;34313;50.780;6.084;2022-12-18T11:57:42;100254.72;;;1.92;60.86
9189;BME280;34313;50.780;6.084;2022-12-18T12:00:15;100242.44;;;2.03;60.40
9189;BME280;34313;50.780;6.084;2022-12-18T12:11:35;100235.19;;;2.30;60.63
9189;BME280;34313;50.780;6.084;2022-12-18T12:14:16;100230.00;;;2.30;60.48
9189;BME280;34313;50.780;6.084;2022-12-18T12:16:57;100227.31;;;2.37;60.36
9189;BME280;34313;50.780;6.084;2022-12-18T12:25:14;100221.81;;;2.57;59.98
9189;BME280;34313;50.780;6.084;2022-12-18T12:33:37;100205.91;;;2.14;60.78
9189;BME280;34313;50.780;6.084;2022-12-18T12:36:31;100213.16;;;1.90;61.53
9189;BME280;34313;50.780;6.084;2022-12-18T12:39:06;100200.16;;;1.90;61.57
9189;BME280;34313;50.780;6.084;2022-12-18T12:41:33;100204.56;;;1.80;62.17
9189;BME280;34313;50.780;6.084;2022-12-18T12:44:25;100195.06;;;1.81;62.86
9189;BME280;34313;50.780;6.084;2022-12-18T12:46:56;100180.31;;;1.83;62.63
9189;BME280;34313;50.780;6.084;2022-12-18T12:49:27;100184.53;;;1.92;62.83
9189;BME280;34313;50.780;6.084;2022-12-18T12:52:00;100179.22;;;1.99;62.94
9189;BME280;34313;50.780;6.084;2022-12-18T12:54:31;100175.50;;;2.19;62.64
9189;BME280;34313;50.780;6.084;2022-12-18T12:57:04;100171.06;;;2.27;62.18
9189;BME280;34313;50.780;6.084;2022-12-18T13:07:47;100150.84;;;2.49;61.92
9189;BME280;34313;50.780;6.084;2022-12-18T13:15:40;100137.72;;;2.54;60.65
9189;BME280;34313;50.780;6.084;2022-12-18T13:20:38;100121.50;;;2.38;57.56
9189;BME280;34313;50.780;6.084;2022-12-18T13:25:58;100119.63;;;2.48;56.80
9189;BME280;34313;50.780;6.084;2022-12-18T13:31:00;100125.03;;;2.34;56.35
9189;BME280;34313;50.780;6.084;2022-12-18T13:38:43;100125.50;;;2.60;57.78
9189;BME280;34313;50.780;6.084;2022-12-18T13:43:54;100125.44;;;2.65;58.41
9189;BME280;34313;50.780;6.084;2022-12-18T13:51:41;100111.66;;;2.57;59.18
9189;BME280;34313;50.780;6.084;2022-12-18T13:54:36;100120.28;;;2.60;59.37
9189;BME280;34313;50.780;6.084;2022-12-18T13:57:04;100108.16;;;2.59;59.66
9189;BME280;34313;50.780;6.084;2022-12-18T13:59:39;100110.88;;;2.53;60.13
9189;BME280;34313;50.780;6.084;2022-12-18T14:02:14;100114.47;;;2.44;60.22
9189;BME280;34313;50.780;6.084;2022-12-18T14:04:40;100107.50;;;2.46;59.96
9189;BME280;34313;50.780;6.084;2022-12-18T14:09:37;100097.03;;;2.50;60.67
9189;BME280;34313;50.780;6.084;2022-12-18T14:12:05;100094.31;;;2.56;61.21
9189;BME280;34313;50.780;6.084;2022-12-18T14:14:51;100102.06;;;2.60;61.35
9189;BME280;34313;50.780;6.084;2022-12-18T14:17:17;100090.88;;;2.55;61.47
9189;BME280;34313;50.780;6.084;2022-12-18T14:19:48;100098.75;;;2.51;61.55
9189;BME280;34313;50.780;6.084;2022-12-18T14:22:23;100095.31;;;2.49;61.60
9189;BME280;34313;50.780;6.084;2022-12-18T14:27:42;100101.47;;;2.43;61.78
9189;BME280;34313;50.780;6.084;2022-12-18T14:33:01;100099.00;;;2.35;62.77
9189;BME280;34313;50.780;6.084;2022-12-18T14:35:27;100102.50;;;2.31;63.29
9189;BME280;34313;50.780;6.084;2022-12-18T14:37:59;100091.38;;;2.23;62.89
9189;BME280;34313;50.780;6.084;2022-12-18T14:40:32;100089.78;;;2.14;63.26
9189;BME280;34313;50.780;6.084;2022-12-18T14:42:57;100102.84;;;2.10;63.89
9189;BME280;34313;50.780;6.084;2022-12-18T14:45:36;100111.53;;;2.07;64.19
9189;BME280;34313;50.780;6.084;2022-12-18T14:48:06;100102.09;;;2.00;64.21
9189;BME280;34313;50.780;6.084;2022-12-18T14:50:32;100099.63;;;1.89;64.62
9189;BME280;34313;50.780;6.084;2022-12-18T14:52:57;100103.06;;;1.93;64.57
9189;BME280;34313;50.780;6.084;2022-12-18T14:55:23;100104.91;;;1.86;65.11
9189;BME280;34313;50.780;6.084;2022-12-18T14:57:51;100115.34;;;1.81;65.72